createdAt,value
2022-09-11T00:00:22.202Z,14.50
2022-09-11T00:01:19.170Z,14.48
2022-09-11T00:02:19.231Z,14.51
2022-09-11T00:03:19.142Z,14.51
2022-09-11T00:04:19.132Z,14.51
2022-09-11T00:05:19.139Z,14.54
2022-09-11T00:06:28.944Z,14.53
2022-09-11T00:07:20.240Z,14.53
2022-09-11T00:08:19.122Z,14.50
2022-09-11T00:09:19.040Z,14.47
2022-09-11T00:10:19.042Z,14.45
2022-09-11T00:11:19.034Z,14.47
2022-09-11T00:12:19.004Z,14.45
2022-09-11T00:13:19.024Z,14.44
2022-09-11T00:14:19.022Z,14.43
2022-09-11T00:15:19.125Z,14.41
2022-09-11T00:16:19.056Z,14.44
2022-09-11T00:17:18.966Z,14.44
2022-09-11T00:18:18.914Z,14.45
2022-09-11T00:19:21.908Z,14.44
2022-09-11T00:20:21.930Z,14.47
2022-09-11T00:21:18.877Z,14.44
2022-09-11T00:22:18.946Z,14.43
2022-09-11T00:23:18.916Z,14.40
2022-09-11T00:24:18.840Z,14.36
2022-09-11T00:25:18.818Z,14.32
2022-09-11T00:26:18.821Z,14.28
2022-09-11T00:27:18.786Z,14.25
2022-09-11T00:28:18.826Z,14.20
2022-09-11T00:29:18.759Z,14.17
2022-09-11T00:30:18.760Z,14.14
2022-09-11T00:31:18.738Z,14.11
2022-09-11T00:32:18.723Z,14.07
2022-09-11T00:33:18.824Z,14.04
2022-09-11T00:34:18.700Z,14.00
2022-09-11T00:35:18.681Z,14.00
2022-09-11T00:36:18.672Z,13.97
2022-09-11T00:37:18.656Z,13.95
2022-09-11T00:38:18.632Z,13.90
2022-09-11T00:39:21.642Z,13.89
2022-09-11T00:40:21.671Z,13.89
2022-09-11T00:41:18.592Z,13.85
2022-09-11T00:42:18.584Z,13.79
2022-09-11T00:43:18.662Z,13.78
2022-09-11T00:44:18.830Z,13.75
2022-09-11T00:45:18.548Z,13.72
2022-09-11T00:46:18.522Z,13.71
2022-09-11T00:47:18.526Z,13.68
2022-09-11T00:48:18.486Z,13.65
2022-09-11T00:49:18.487Z,13.65
2022-09-11T00:50:19.565Z,13.62
2022-09-11T00:51:18.467Z,13.60
2022-09-11T00:52:18.458Z,13.57
2022-09-11T00:53:18.448Z,13.56
2022-09-11T00:54:18.428Z,13.59
2022-09-11T00:55:18.418Z,13.59
2022-09-11T00:56:18.440Z,13.57
2022-09-11T00:57:18.379Z,13.59
2022-09-11T00:58:18.369Z,13.59
2022-09-11T00:59:21.372Z,13.59
2022-09-11T01:00:21.353Z,13.59
2022-09-11T01:01:18.381Z,13.57
2022-09-11T01:02:18.341Z,13.54
2022-09-11T01:03:18.310Z,13.53
2022-09-11T01:04:18.293Z,13.52
2022-09-11T01:05:18.265Z,13.47
2022-09-11T01:06:18.292Z,13.49
2022-09-11T01:07:18.279Z,13.47
2022-09-11T01:08:18.234Z,13.42
2022-09-11T01:09:18.222Z,13.41
2022-09-11T01:10:18.203Z,13.39
2022-09-11T01:11:18.223Z,13.37
2022-09-11T01:12:18.184Z,13.35
2022-09-11T01:13:18.324Z,13.33
2022-09-11T01:14:18.145Z,13.31
2022-09-11T01:15:18.152Z,13.27
2022-09-11T01:16:18.133Z,13.25
2022-09-11T01:17:18.120Z,13.22
2022-09-11T01:18:18.095Z,13.19
2022-09-11T01:19:21.147Z,13.15
2022-09-11T01:20:21.088Z,13.12
2022-09-11T01:21:18.058Z,13.05
2022-09-11T01:22:18.048Z,13.04
2022-09-11T01:23:18.035Z,13.00
2022-09-11T01:24:18.009Z,12.95
2022-09-11T01:25:18.026Z,12.94
2022-09-11T01:26:17.999Z,12.91
2022-09-11T01:27:17.979Z,12.91
2022-09-11T01:28:17.970Z,12.91
2022-09-11T01:29:17.954Z,12.93
2022-09-11T01:30:17.990Z,12.93
2022-09-11T01:31:17.968Z,12.94
2022-09-11T01:32:17.911Z,12.93
2022-09-11T01:33:17.901Z,12.93
2022-09-11T01:34:17.891Z,12.94
2022-09-11T01:35:17.884Z,12.91
2022-09-11T01:36:18.007Z,12.93
2022-09-11T01:37:17.832Z,12.93
2022-09-11T01:38:17.832Z,12.94
2022-09-11T01:39:20.825Z,12.95
2022-09-11T01:40:20.824Z,13.00
2022-09-11T01:41:17.796Z,13.11
2022-09-11T01:42:17.822Z,13.19
2022-09-11T01:43:17.779Z,13.38
2022-09-11T01:44:17.793Z,13.44
2022-09-11T01:45:17.737Z,13.49
2022-09-11T01:46:17.731Z,13.52
2022-09-11T01:47:17.732Z,13.56
2022-09-11T01:48:17.750Z,13.59
2022-09-11T01:49:17.746Z,13.57
2022-09-11T01:50:17.678Z,13.57
2022-09-11T01:51:17.668Z,13.52
2022-09-11T01:52:17.648Z,13.46
2022-09-11T01:53:17.641Z,13.41
2022-09-11T01:54:17.629Z,13.33
2022-09-11T01:55:17.629Z,13.23
2022-09-11T01:56:17.590Z,13.15
2022-09-11T01:57:17.598Z,13.05
2022-09-11T01:58:17.579Z,12.98
2022-09-11T01:59:20.592Z,12.93
2022-09-11T02:00:20.700Z,12.91
2022-09-11T02:01:17.541Z,12.82
2022-09-11T02:02:17.561Z,12.82
2022-09-11T02:03:17.513Z,12.80
2022-09-11T02:04:17.514Z,12.76
2022-09-11T02:05:17.493Z,12.76
2022-09-11T02:06:17.524Z,12.76
2022-09-11T02:07:17.452Z,12.76
2022-09-11T02:08:17.452Z,12.78
2022-09-11T02:09:17.443Z,12.80
2022-09-11T02:10:17.416Z,12.85
2022-09-11T02:11:17.396Z,12.93
2022-09-11T02:12:17.517Z,12.97
2022-09-11T02:13:17.366Z,13.05
2022-09-11T02:14:17.369Z,13.16
2022-09-11T02:15:17.360Z,13.28
2022-09-11T02:16:17.381Z,13.38
2022-09-11T02:17:17.336Z,13.46
2022-09-11T02:18:17.337Z,13.56
2022-09-11T02:19:20.297Z,13.60
2022-09-11T02:20:20.307Z,13.65
2022-09-11T02:21:17.287Z,13.62
2022-09-11T02:22:17.270Z,13.59
2022-09-11T02:23:17.308Z,13.56
2022-09-11T02:24:17.239Z,13.54
2022-09-11T02:25:17.231Z,13.57
2022-09-11T02:26:17.217Z,13.59
2022-09-11T02:27:17.192Z,13.62
2022-09-11T02:28:17.211Z,13.65
2022-09-11T02:29:17.299Z,13.67
2022-09-11T02:30:17.165Z,13.67
2022-09-11T02:31:17.190Z,13.67
2022-09-11T02:32:17.135Z,13.67
2022-09-11T02:33:17.137Z,13.67
2022-09-11T02:34:17.094Z,13.68
2022-09-11T02:35:17.444Z,13.72
2022-09-11T02:36:17.086Z,13.75
2022-09-11T02:37:17.078Z,13.77
2022-09-11T02:38:17.064Z,13.78
2022-09-11T02:39:20.035Z,13.77
2022-09-11T02:40:20.187Z,13.79
2022-09-11T02:41:17.006Z,13.75
2022-09-11T02:42:17.009Z,13.75
2022-09-11T02:43:16.996Z,13.75
2022-09-11T02:44:16.988Z,13.74
2022-09-11T02:45:16.957Z,13.74
2022-09-11T02:46:16.998Z,13.74
2022-09-11T02:47:16.932Z,13.74
2022-09-11T02:48:16.918Z,13.74
2022-09-11T02:49:16.921Z,13.72
2022-09-11T02:50:16.889Z,13.72
2022-09-11T02:51:16.891Z,13.72
2022-09-11T02:52:16.906Z,13.72
2022-09-11T02:53:16.864Z,13.72
2022-09-11T02:54:16.852Z,13.72
2022-09-11T02:55:16.831Z,13.74
2022-09-11T02:56:16.824Z,13.72
2022-09-11T02:57:16.860Z,13.71
2022-09-11T02:58:16.802Z,13.70
2022-09-11T02:59:19.792Z,13.70
2022-09-11T03:00:19.772Z,13.72
2022-09-11T03:01:16.817Z,13.70
2022-09-11T03:02:16.773Z,13.70
2022-09-11T03:03:16.764Z,13.68
2022-09-11T03:04:16.724Z,13.68
2022-09-11T03:05:16.704Z,13.67
2022-09-11T03:06:16.686Z,13.67
2022-09-11T03:07:16.887Z,13.65
2022-09-11T03:08:16.666Z,13.65
2022-09-11T03:09:16.647Z,13.63
2022-09-11T03:10:16.637Z,13.62
2022-09-11T03:11:16.636Z,13.60
2022-09-11T03:12:16.606Z,13.59
2022-09-11T03:13:16.758Z,13.56
2022-09-11T03:14:16.587Z,13.57
2022-09-11T03:15:16.568Z,13.54
2022-09-11T03:16:16.674Z,13.54
2022-09-11T03:17:16.549Z,13.53
2022-09-11T03:18:16.531Z,13.50
2022-09-11T03:19:19.649Z,13.49
2022-09-11T03:20:19.511Z,13.49
2022-09-11T03:21:16.480Z,13.44
2022-09-11T03:22:16.470Z,13.39
2022-09-11T03:23:16.460Z,13.38
2022-09-11T03:24:16.441Z,13.38
2022-09-11T03:25:16.453Z,13.33
2022-09-11T03:26:16.420Z,13.31
2022-09-11T03:27:16.392Z,13.31
2022-09-11T03:28:16.537Z,13.30
2022-09-11T03:29:16.383Z,13.30
2022-09-11T03:30:16.354Z,13.28
2022-09-11T03:31:16.398Z,13.28
2022-09-11T03:32:16.334Z,13.30
2022-09-11T03:33:16.326Z,13.30
2022-09-11T03:34:16.324Z,13.30
2022-09-11T03:35:16.325Z,13.30
2022-09-11T03:36:16.286Z,13.28
2022-09-11T03:37:16.275Z,13.28
2022-09-11T03:38:16.257Z,13.27
2022-09-11T03:39:19.287Z,13.27
2022-09-11T03:40:19.247Z,13.28
2022-09-11T03:41:16.238Z,13.25
2022-09-11T03:42:16.217Z,13.25
2022-09-11T03:43:16.196Z,13.27
2022-09-11T03:44:16.236Z,13.27
2022-09-11T03:45:16.178Z,13.28
2022-09-11T03:46:16.157Z,13.27
2022-09-11T03:47:16.140Z,13.27
2022-09-11T03:48:16.129Z,13.25
2022-09-11T03:49:16.119Z,13.25
2022-09-11T03:50:16.229Z,13.27
2022-09-11T03:51:16.090Z,13.30
2022-09-11T03:52:16.084Z,13.28
2022-09-11T03:53:16.071Z,13.28
2022-09-11T03:54:16.034Z,13.30
2022-09-11T03:55:16.039Z,13.30
2022-09-11T03:56:16.057Z,13.28
2022-09-11T03:57:16.032Z,13.30
2022-09-11T03:58:16.004Z,13.31
2022-09-11T03:59:18.984Z,13.31
2022-09-11T04:00:18.997Z,13.35
2022-09-11T04:01:16.063Z,13.37
2022-09-11T04:02:15.969Z,13.37
2022-09-11T04:03:15.934Z,13.37
2022-09-11T04:04:15.922Z,13.35
2022-09-11T04:05:15.904Z,13.33
2022-09-11T04:06:15.916Z,13.31
2022-09-11T04:07:15.915Z,13.33
2022-09-11T04:08:15.857Z,13.35
2022-09-11T04:09:15.855Z,13.37
2022-09-11T04:10:15.838Z,13.37
2022-09-11T04:11:15.867Z,13.35
2022-09-11T04:12:15.953Z,13.31
2022-09-11T04:13:15.798Z,13.31
2022-09-11T04:14:15.788Z,13.33
2022-09-11T04:15:15.778Z,13.35
2022-09-11T04:16:17.273Z,13.38
2022-09-11T04:17:15.749Z,13.39
2022-09-11T04:18:15.870Z,13.41
2022-09-11T04:19:18.727Z,13.39
2022-09-11T04:20:18.722Z,13.44
2022-09-11T04:21:17.164Z,13.44
2022-09-11T04:22:15.683Z,13.44
2022-09-11T04:23:15.712Z,13.46
2022-09-11T04:24:15.692Z,13.49
2022-09-11T04:25:15.643Z,13.50
2022-09-11T04:26:16.594Z,13.52
2022-09-11T04:27:15.622Z,13.53
2022-09-11T04:28:15.623Z,13.53
2022-09-11T04:29:15.846Z,13.52
2022-09-11T04:30:15.576Z,13.53
2022-09-11T04:31:16.574Z,13.54
2022-09-11T04:32:15.556Z,13.54
2022-09-11T04:33:15.548Z,13.57
2022-09-11T04:34:15.526Z,13.56
2022-09-11T04:35:15.540Z,13.59
2022-09-11T04:36:16.245Z,13.60
2022-09-11T04:37:15.488Z,13.60
2022-09-11T04:38:15.469Z,13.63
2022-09-11T04:39:18.460Z,13.63
2022-09-11T04:40:18.602Z,13.65
2022-09-11T04:41:16.901Z,13.63
2022-09-11T04:42:15.410Z,13.67
2022-09-11T04:43:15.411Z,13.67
2022-09-11T04:44:15.391Z,13.67
2022-09-11T04:45:15.381Z,13.68
2022-09-11T04:46:16.093Z,13.70
2022-09-11T04:47:15.352Z,13.70
2022-09-11T04:48:15.320Z,13.72
2022-09-11T04:49:15.332Z,13.74
2022-09-11T04:50:15.306Z,13.75
2022-09-11T04:51:16.801Z,13.78
2022-09-11T04:52:15.304Z,13.78
2022-09-11T04:53:15.273Z,13.79
2022-09-11T04:54:15.253Z,13.78
2022-09-11T04:55:15.244Z,13.78
2022-09-11T04:56:16.702Z,13.79
2022-09-11T04:57:15.273Z,13.79
2022-09-11T04:58:15.188Z,13.79
2022-09-11T04:59:18.195Z,13.79
2022-09-11T05:00:18.186Z,13.85
2022-09-11T05:01:16.674Z,13.86
2022-09-11T05:02:15.314Z,13.86
2022-09-11T05:03:15.167Z,13.86
2022-09-11T05:04:15.127Z,13.86
2022-09-11T05:05:15.107Z,13.87
2022-09-11T05:06:16.563Z,13.89
2022-09-11T05:07:15.070Z,13.89
2022-09-11T05:08:23.789Z,13.89
2022-09-11T05:09:15.031Z,13.89
2022-09-11T05:10:15.022Z,13.90
2022-09-11T05:11:16.463Z,13.92
2022-09-11T05:12:15.175Z,13.93
2022-09-11T05:13:14.996Z,13.92
2022-09-11T05:14:14.987Z,13.93
2022-09-11T05:15:14.976Z,13.95
2022-09-11T05:16:16.466Z,13.93
2022-09-11T05:17:14.957Z,13.93
2022-09-11T05:18:14.983Z,13.95
2022-09-11T05:19:17.903Z,13.95
2022-09-11T05:20:17.903Z,13.99
2022-09-11T05:21:15.690Z,14.00
2022-09-11T05:22:14.887Z,14.00
2022-09-11T05:23:14.846Z,14.03
2022-09-11T05:24:14.842Z,14.07
2022-09-11T05:25:14.976Z,14.05
2022-09-11T05:26:14.808Z,14.08
2022-09-11T05:27:14.788Z,14.10
2022-09-11T05:28:14.787Z,14.08
2022-09-11T05:29:14.768Z,14.08
2022-09-11T05:30:14.761Z,14.07
2022-09-11T05:31:14.787Z,14.07
2022-09-11T05:32:14.729Z,14.03
2022-09-11T05:33:14.741Z,14.03
2022-09-11T05:34:14.700Z,14.00
2022-09-11T05:35:14.693Z,14.03
2022-09-11T05:36:14.671Z,14.00
2022-09-11T05:37:14.701Z,13.99
2022-09-11T05:38:14.658Z,14.00
2022-09-11T05:39:17.632Z,13.99
2022-09-11T05:40:17.649Z,14.05
2022-09-11T05:41:14.602Z,14.05
2022-09-11T05:42:14.621Z,14.07
2022-09-11T05:43:14.613Z,14.07
2022-09-11T05:44:14.584Z,14.11
2022-09-11T05:45:14.554Z,14.15
2022-09-11T05:46:14.557Z,14.18
2022-09-11T05:47:14.675Z,14.20
2022-09-11T05:48:14.525Z,14.22
2022-09-11T05:49:14.521Z,14.25
2022-09-11T05:50:14.486Z,14.26
2022-09-11T05:51:14.477Z,14.28
2022-09-11T05:52:14.470Z,14.29
2022-09-11T05:53:14.487Z,14.30
2022-09-11T05:54:14.437Z,14.33
2022-09-11T05:55:14.424Z,14.35
2022-09-11T05:56:14.430Z,14.33
2022-09-11T05:57:14.438Z,14.35
2022-09-11T05:58:14.396Z,14.37
2022-09-11T05:59:17.382Z,14.36
2022-09-11T06:00:17.372Z,14.41
2022-09-11T06:01:14.372Z,14.41
2022-09-11T06:02:14.397Z,14.44
2022-09-11T06:03:15.640Z,14.44
2022-09-11T06:04:14.431Z,14.47
2022-09-11T06:05:14.302Z,14.48
2022-09-11T06:06:14.280Z,14.51
2022-09-11T06:07:14.259Z,14.48
2022-09-11T06:08:14.269Z,14.48
2022-09-11T06:09:14.232Z,14.48
2022-09-11T06:10:14.252Z,14.50
2022-09-11T06:11:14.348Z,14.53
2022-09-11T06:12:14.193Z,14.53
2022-09-11T06:13:14.175Z,14.54
2022-09-11T06:14:14.174Z,14.62
2022-09-11T06:15:36.377Z,14.63
2022-09-11T06:16:18.350Z,14.70
2022-09-11T06:17:14.152Z,14.78
2022-09-11T06:18:14.125Z,14.82
2022-09-11T06:19:17.115Z,14.86
2022-09-11T06:20:17.095Z,14.94
2022-09-11T06:21:14.070Z,14.96
2022-09-11T06:22:14.087Z,15.02
2022-09-11T06:23:14.036Z,15.07
2022-09-11T06:24:14.027Z,15.10
2022-09-11T06:25:14.028Z,15.15
2022-09-11T06:26:13.998Z,15.21
2022-09-11T06:27:13.999Z,15.21
2022-09-11T06:28:13.991Z,15.24
2022-09-11T06:29:13.949Z,15.28
2022-09-11T06:30:13.940Z,15.29
2022-09-11T06:31:13.940Z,15.31
2022-09-11T06:32:13.939Z,15.29
2022-09-11T06:33:13.920Z,15.31
2022-09-11T06:34:13.901Z,15.24
2022-09-11T06:35:13.868Z,15.22
2022-09-11T06:36:13.852Z,15.21
2022-09-11T06:37:13.849Z,15.22
2022-09-11T06:38:13.863Z,15.22
2022-09-11T06:39:16.841Z,15.21
2022-09-11T06:40:16.865Z,15.25
2022-09-11T06:41:13.784Z,15.25
2022-09-11T06:42:13.771Z,15.28
2022-09-11T06:43:13.746Z,15.25
2022-09-11T06:44:13.785Z,15.28
2022-09-11T06:45:13.723Z,15.28
2022-09-11T06:46:13.793Z,15.31
2022-09-11T06:47:13.722Z,15.37
2022-09-11T06:48:13.696Z,15.42
2022-09-11T06:49:13.695Z,15.47
2022-09-11T06:50:13.663Z,15.58
2022-09-11T06:51:13.794Z,15.59
2022-09-11T06:52:13.627Z,15.61
2022-09-11T06:53:13.627Z,15.67
2022-09-11T06:54:13.598Z,15.72
2022-09-11T06:55:13.587Z,15.75
2022-09-11T06:56:13.579Z,15.77
2022-09-11T06:57:13.714Z,15.79
2022-09-11T06:58:13.556Z,15.84
2022-09-11T06:59:16.539Z,15.92
2022-09-11T07:00:16.533Z,16.04
2022-09-11T07:01:13.612Z,16.13
2022-09-11T07:02:13.586Z,16.21
2022-09-11T07:03:13.613Z,16.23
2022-09-11T07:04:13.486Z,16.28
2022-09-11T07:05:13.452Z,16.31
2022-09-11T07:06:13.442Z,16.29
2022-09-11T07:07:13.424Z,16.29
2022-09-11T07:08:13.423Z,16.26
2022-09-11T07:09:13.433Z,16.26
2022-09-11T07:10:13.414Z,16.08
2022-09-11T07:11:13.364Z,16.00
2022-09-11T07:12:13.375Z,16.01
2022-09-11T07:13:13.344Z,16.04
2022-09-11T07:14:13.485Z,16.05
2022-09-11T07:15:13.327Z,15.98
2022-09-11T07:16:13.363Z,15.88
2022-09-11T07:17:13.287Z,15.82
2022-09-11T07:18:13.304Z,15.79
2022-09-11T07:19:16.288Z,15.77
2022-09-11T07:20:16.268Z,15.76
2022-09-11T07:21:13.229Z,15.77
2022-09-11T07:22:13.229Z,15.76
2022-09-11T07:23:13.328Z,15.77
2022-09-11T07:24:13.198Z,15.83
2022-09-11T07:25:13.188Z,15.88
2022-09-11T07:26:13.170Z,15.92
2022-09-11T07:27:13.150Z,15.95
2022-09-11T07:28:13.162Z,16.00
2022-09-11T07:29:13.152Z,16.05
2022-09-11T07:30:13.115Z,16.05
2022-09-11T07:31:15.360Z,16.02
2022-09-11T07:32:14.092Z,15.97
2022-09-11T07:33:13.072Z,15.94
2022-09-11T07:34:13.100Z,15.88
2022-09-11T07:35:13.043Z,15.88
2022-09-11T07:36:13.083Z,15.83
2022-09-11T07:37:13.015Z,15.77
2022-09-11T07:38:13.026Z,15.82
2022-09-11T07:39:15.996Z,15.88
2022-09-11T07:40:16.058Z,15.92
2022-09-11T07:41:12.989Z,15.86
2022-09-11T07:42:12.977Z,15.88
2022-09-11T07:43:12.937Z,15.91
2022-09-11T07:44:13.107Z,15.88
2022-09-11T07:45:12.913Z,15.91
2022-09-11T07:46:12.897Z,16.00
2022-09-11T07:47:12.887Z,16.04
2022-09-11T07:48:12.889Z,16.12
2022-09-11T07:49:12.859Z,16.23
2022-09-11T07:50:12.899Z,16.26
2022-09-11T07:51:12.840Z,16.23
2022-09-11T07:52:16.686Z,16.23
2022-09-11T07:53:12.801Z,16.32
2022-09-11T07:54:12.806Z,16.42
2022-09-11T07:55:12.779Z,16.50
2022-09-11T07:56:12.792Z,16.53
2022-09-11T07:57:12.751Z,16.61
2022-09-11T07:58:12.761Z,16.74
2022-09-11T07:59:15.754Z,16.96
2022-09-11T08:00:15.723Z,17.11
2022-09-11T08:01:12.757Z,17.05
2022-09-11T08:02:12.706Z,17.02
2022-09-11T08:03:12.708Z,16.91
2022-09-11T08:04:12.662Z,16.66
2022-09-11T08:05:12.786Z,16.71
2022-09-11T08:06:12.627Z,16.71
2022-09-11T08:07:12.617Z,16.72
2022-09-11T08:08:12.615Z,16.79
2022-09-11T08:09:12.586Z,16.78
2022-09-11T08:10:26.685Z,16.78
2022-09-11T08:11:13.594Z,16.74
2022-09-11T08:12:12.745Z,16.78
2022-09-11T08:13:12.529Z,16.74
2022-09-11T08:14:12.518Z,16.75
2022-09-11T08:15:12.507Z,16.71
2022-09-11T08:16:12.512Z,16.66
2022-09-11T08:17:12.479Z,16.58
2022-09-11T08:18:12.600Z,16.58
2022-09-11T08:19:15.449Z,16.58
2022-09-11T08:20:15.461Z,16.65
2022-09-11T08:21:13.200Z,16.68
2022-09-11T08:22:12.418Z,16.54
2022-09-11T08:23:12.405Z,16.57
2022-09-11T08:24:12.413Z,16.60
2022-09-11T08:25:12.372Z,16.65
2022-09-11T08:26:12.365Z,16.68
2022-09-11T08:27:12.347Z,16.78
2022-09-11T08:28:12.342Z,16.99
2022-09-11T08:29:12.474Z,17.24
2022-09-11T08:30:12.306Z,17.41
2022-09-11T08:31:12.332Z,17.51
2022-09-11T08:32:12.283Z,17.48
2022-09-11T08:33:12.265Z,17.48
2022-09-11T08:34:12.253Z,17.48
2022-09-11T08:35:12.269Z,17.42
2022-09-11T08:36:12.227Z,17.34
2022-09-11T08:37:12.241Z,17.23
2022-09-11T08:38:12.207Z,17.20
2022-09-11T08:39:15.177Z,17.16
2022-09-11T08:40:15.241Z,17.26
2022-09-11T08:41:12.158Z,17.27
2022-09-11T08:42:12.168Z,17.31
2022-09-11T08:43:12.141Z,17.38
2022-09-11T08:44:12.281Z,17.51
2022-09-11T08:45:12.100Z,17.63
2022-09-11T08:46:12.141Z,17.74
2022-09-11T08:47:12.130Z,17.82
2022-09-11T08:48:12.073Z,17.97
2022-09-11T08:49:12.049Z,18.08
2022-09-11T08:50:12.061Z,18.13
2022-09-11T08:51:12.021Z,18.19
2022-09-11T08:52:12.015Z,18.25
2022-09-11T08:53:12.919Z,18.38
2022-09-11T08:54:12.134Z,18.34
2022-09-11T08:55:11.963Z,18.33
2022-09-11T08:56:11.956Z,18.25
2022-09-11T08:57:12.010Z,18.10
2022-09-11T08:58:11.935Z,18.00
2022-09-11T08:59:14.936Z,17.89
2022-09-11T09:00:14.915Z,17.82
2022-09-11T09:01:11.939Z,17.86
2022-09-11T09:02:11.924Z,17.94
2022-09-11T09:03:11.877Z,17.95
2022-09-11T09:04:11.860Z,17.89
2022-09-11T09:05:11.829Z,17.85
2022-09-11T09:06:11.839Z,17.80
2022-09-11T09:07:11.839Z,17.79
2022-09-11T09:08:11.851Z,17.67
2022-09-11T09:09:11.776Z,17.52
2022-09-11T09:10:11.760Z,17.46
2022-09-11T09:11:11.747Z,17.42
2022-09-11T09:12:11.731Z,17.51
2022-09-11T09:13:11.732Z,17.59
2022-09-11T09:14:11.851Z,17.70
2022-09-11T09:15:11.693Z,17.82
2022-09-11T09:16:11.817Z,17.97
2022-09-11T09:17:11.675Z,18.01
2022-09-11T09:18:11.662Z,18.13
2022-09-11T09:19:14.663Z,18.16
2022-09-11T09:20:14.633Z,18.19
2022-09-11T09:21:11.615Z,18.31
2022-09-11T09:22:11.595Z,18.47
2022-09-11T09:23:11.586Z,18.59
2022-09-11T09:24:11.575Z,18.50
2022-09-11T09:25:11.586Z,18.58
2022-09-11T09:26:11.545Z,18.77
2022-09-11T09:27:11.536Z,18.89
2022-09-11T09:28:11.547Z,18.93
2022-09-11T09:29:11.505Z,19.09
2022-09-11T09:30:11.516Z,19.11
2022-09-11T09:31:11.535Z,19.15
2022-09-11T09:32:11.487Z,19.11
2022-09-11T09:33:13.291Z,19.00
2022-09-11T09:34:11.429Z,18.90
2022-09-11T09:35:11.429Z,18.84
2022-09-11T09:36:11.431Z,18.84
2022-09-11T09:37:11.393Z,18.96
2022-09-11T09:38:11.383Z,18.93
2022-09-11T09:39:14.374Z,18.83
2022-09-11T09:40:14.410Z,18.75
2022-09-11T09:41:11.362Z,18.71
2022-09-11T09:42:11.355Z,18.66
2022-09-11T09:43:11.314Z,18.71
2022-09-11T09:44:11.294Z,18.90
2022-09-11T09:45:11.284Z,19.04
2022-09-11T09:46:11.361Z,19.04
2022-09-11T09:47:11.415Z,19.07
2022-09-11T09:48:11.246Z,19.19
2022-09-11T09:49:11.234Z,19.45
2022-09-11T09:50:11.218Z,19.56
2022-09-11T09:51:11.206Z,19.69
2022-09-11T09:52:11.188Z,19.67
2022-09-11T09:53:11.206Z,19.67
2022-09-11T09:54:11.172Z,19.59
2022-09-11T09:55:11.149Z,19.63
2022-09-11T09:56:11.137Z,19.59
2022-09-11T09:57:11.127Z,19.56
2022-09-11T09:58:11.320Z,19.58
2022-09-11T09:59:14.100Z,19.62
2022-09-11T10:00:14.101Z,19.66
2022-09-11T10:01:13.495Z,19.67
2022-09-11T10:02:11.085Z,19.71
2022-09-11T10:03:11.052Z,19.82
2022-09-11T10:04:11.090Z,19.92
2022-09-11T10:05:11.032Z,20.00
2022-09-11T10:06:11.004Z,20.09
2022-09-11T10:07:10.994Z,20.25
2022-09-11T10:08:10.984Z,20.40
2022-09-11T10:09:10.975Z,20.39
2022-09-11T10:10:10.994Z,20.44
2022-09-11T10:11:10.947Z,20.41
2022-09-11T10:12:10.942Z,20.40
2022-09-11T10:13:19.629Z,20.37
2022-09-11T10:14:17.729Z,20.14
2022-09-11T10:15:11.928Z,19.94
2022-09-11T10:16:10.927Z,19.77
2022-09-11T10:17:10.871Z,19.64
2022-09-11T10:18:10.852Z,19.56
2022-09-11T10:19:13.839Z,19.49
2022-09-11T10:20:13.886Z,19.45
2022-09-11T10:21:10.820Z,19.41
2022-09-11T10:22:10.800Z,19.48
2022-09-11T10:23:10.821Z,19.63
2022-09-11T10:24:10.772Z,19.71
2022-09-11T10:25:10.908Z,19.86
2022-09-11T10:26:10.751Z,20.03
2022-09-11T10:27:10.754Z,20.22
2022-09-11T10:28:10.722Z,20.40
2022-09-11T10:29:10.713Z,20.59
2022-09-11T10:30:10.698Z,20.70
2022-09-11T10:31:10.785Z,20.82
2022-09-11T10:32:10.666Z,20.96
2022-09-11T10:33:10.666Z,21.11
2022-09-11T10:34:10.644Z,21.30
2022-09-11T10:35:10.636Z,21.42
2022-09-11T10:36:10.616Z,21.46
2022-09-11T10:37:10.637Z,21.58
2022-09-11T10:38:10.587Z,21.70
2022-09-11T10:39:13.598Z,21.64
2022-09-11T10:40:13.661Z,21.50
2022-09-11T10:41:10.557Z,21.29
2022-09-11T10:42:10.571Z,21.11
2022-09-11T10:43:10.666Z,21.00
2022-09-11T10:44:10.520Z,20.81
2022-09-11T10:45:10.500Z,20.65
2022-09-11T10:46:10.551Z,20.48
2022-09-11T10:47:10.489Z,20.29
2022-09-11T10:48:10.472Z,20.19
2022-09-11T10:49:10.472Z,20.10
2022-09-11T10:50:10.434Z,20.21
2022-09-11T10:51:10.420Z,20.40
2022-09-11T10:52:10.412Z,20.59
2022-09-11T10:53:10.396Z,20.81
2022-09-11T10:54:10.405Z,21.02
2022-09-11T10:55:10.365Z,21.22
2022-09-11T10:56:10.356Z,21.45
2022-09-11T10:57:10.353Z,21.64
2022-09-11T10:58:10.320Z,21.82
2022-09-11T10:59:13.518Z,21.98
2022-09-11T11:00:13.312Z,22.14
2022-09-11T11:01:10.358Z,22.13
2022-09-11T11:02:10.332Z,22.15
2022-09-11T11:03:10.252Z,22.10
2022-09-11T11:04:12.291Z,21.89
2022-09-11T11:05:10.240Z,21.51
2022-09-11T11:06:10.199Z,21.21
2022-09-11T11:07:10.190Z,21.17
2022-09-11T11:08:10.171Z,21.09
2022-09-11T11:09:10.339Z,21.17
2022-09-11T11:10:10.151Z,21.24
2022-09-11T11:11:10.131Z,21.21
2022-09-11T11:12:10.113Z,21.25
2022-09-11T11:13:10.107Z,21.36
2022-09-11T11:14:10.094Z,21.45
2022-09-11T11:15:10.213Z,21.64
2022-09-11T11:16:10.087Z,21.76
2022-09-11T11:17:10.052Z,21.83
2022-09-11T11:18:10.036Z,21.62
2022-09-11T11:19:13.023Z,21.66
2022-09-11T11:20:13.235Z,21.60
2022-09-11T11:21:09.995Z,21.54
2022-09-11T11:22:09.989Z,21.61
2022-09-11T11:23:14.497Z,21.57
2022-09-11T11:24:10.948Z,21.45
2022-09-11T11:25:09.939Z,21.51
2022-09-11T11:26:10.049Z,21.51
2022-09-11T11:27:09.911Z,21.42
2022-09-11T11:28:09.890Z,21.36
2022-09-11T11:29:09.881Z,21.25
2022-09-11T11:30:09.869Z,21.09
2022-09-11T11:31:09.867Z,20.90
2022-09-11T11:32:09.994Z,20.90
2022-09-11T11:33:09.832Z,21.05
2022-09-11T11:34:09.811Z,21.05
2022-09-11T11:35:09.823Z,21.03
2022-09-11T11:36:09.782Z,20.97
2022-09-11T11:37:09.765Z,20.84
2022-09-11T11:38:09.783Z,20.75
2022-09-11T11:39:12.734Z,20.75
2022-09-11T11:40:12.826Z,20.75
2022-09-11T11:41:09.718Z,20.80
2022-09-11T11:42:09.834Z,20.72
2022-09-11T11:43:09.677Z,20.51
2022-09-11T11:44:09.665Z,20.36
2022-09-11T11:45:09.678Z,20.29
2022-09-11T11:46:09.825Z,20.28
2022-09-11T11:47:09.620Z,20.39
2022-09-11T11:48:09.611Z,20.51
2022-09-11T11:49:09.600Z,20.58
2022-09-11T11:50:09.579Z,20.63
2022-09-11T11:51:09.572Z,20.59
2022-09-11T11:52:09.582Z,20.72
2022-09-11T11:53:09.568Z,20.90
2022-09-11T11:54:09.524Z,21.11
2022-09-11T11:55:09.512Z,21.32
2022-09-11T11:56:09.492Z,21.57
2022-09-11T11:57:09.492Z,21.80
2022-09-11T11:58:09.593Z,21.79
2022-09-11T11:59:12.453Z,125.00
2022-09-11T12:00:12.522Z,125.00
2022-09-11T12:01:12.436Z,125.00
2022-09-11T12:02:09.497Z,125.00
2022-09-11T12:03:09.421Z,125.00
2022-09-11T12:04:09.411Z,125.00
2022-09-11T12:05:09.397Z,125.00
2022-09-11T12:06:09.357Z,22.32
2022-09-11T12:07:09.350Z,21.80
2022-09-11T12:08:09.339Z,21.66
2022-09-11T12:09:09.318Z,21.46
2022-09-11T12:10:09.329Z,21.42
2022-09-11T12:11:09.454Z,21.42
2022-09-11T12:12:09.299Z,21.52
2022-09-11T12:13:09.269Z,21.73
2022-09-11T12:14:09.252Z,21.91
2022-09-11T12:15:09.241Z,22.02
2022-09-11T12:16:11.329Z,22.06
2022-09-11T12:17:09.213Z,22.19
2022-09-11T12:18:09.194Z,125.00
2022-09-11T12:19:09.186Z,22.11
2022-09-11T12:20:12.291Z,125.00
2022-09-11T12:21:12.195Z,21.80
2022-09-11T12:22:09.171Z,125.00
2022-09-11T12:23:09.129Z,125.00
2022-09-11T12:24:09.115Z,125.00
2022-09-11T12:25:09.107Z,125.00
2022-09-11T12:26:09.227Z,125.00
2022-09-11T12:27:14.485Z,125.00
2022-09-11T12:28:10.901Z,125.00
2022-09-11T12:29:09.269Z,125.00
2022-09-11T12:30:09.931Z,125.00
2022-09-11T12:31:09.048Z,125.00
2022-09-11T12:32:09.000Z,125.00
2022-09-11T12:33:09.019Z,125.00
2022-09-11T12:34:17.860Z,125.00
2022-09-11T12:35:10.002Z,125.00
2022-09-11T12:36:15.482Z,125.00
2022-09-11T12:37:08.955Z,125.00
2022-09-11T12:38:08.954Z,125.00
2022-09-11T12:39:08.903Z,125.00
2022-09-11T12:40:11.986Z,125.00
2022-09-11T12:41:11.904Z,125.00
2022-09-11T12:42:16.414Z,125.00
2022-09-11T12:43:09.302Z,125.00
2022-09-11T12:44:08.849Z,125.00
2022-09-11T12:45:09.725Z,125.00
2022-09-11T12:46:09.154Z,125.00
2022-09-11T12:47:13.206Z,125.00
2022-09-11T12:48:17.715Z,125.00
2022-09-11T12:49:25.968Z,125.00
2022-09-11T12:50:09.749Z,125.00
2022-09-11T12:51:09.359Z,125.00